sensor_id;sensor_type;location;lat;lon;timestamp;P1;durP1;ratioP1;P2;durP2;ratioP2
19609;SDS011;9952;47.122;-1.638;2024-03-02T00:02:07;7.40;;;0.83;;
19609;SDS011;9952;47.122;-1.638;2024-03-02T00:06:50;2.93;;;0.50;;
19609;SDS011;9952;47.122;-1.638;2024-03-02T00:11:37;3.87;;;0.50;;
19609;SDS011;9952;47.122;-1.638;2024-03-02T00:16:18;6.47;;;0.50;;
19609;SDS011;9952;47.122;-1.638;2024-03-02T00:21:00;1.40;;;0.10;;
19609;SDS011;9952;47.122;-1.638;2024-03-02T00:25:49;6.10;;;0.33;;
19609;SDS011;9952;47.122;-1.638;2024-03-02T00:35:44;1.60;;;0.43;;
19609;SDS011;9952;47.122;-1.638;2024-03-02T00:40:27;4.53;;;0.80;;
19609;SDS011;9952;47.122;-1.638;2024-03-02T00:45:09;5.00;;;0.70;;
19609;SDS011;9952;47.122;-1.638;2024-03-02T00:49:50;2.90;;;0.50;;
19609;SDS011;9952;47.122;-1.638;2024-03-02T00:54:30;8.67;;;1.17;;
19609;SDS011;9952;47.122;-1.638;2024-03-02T00:59:11;8.43;;;1.10;;
19609;SDS011;9952;47.122;-1.638;2024-03-02T01:03:52;4.17;;;0.87;;
19609;SDS011;9952;47.122;-1.638;2024-03-02T01:08:33;4.97;;;0.63;;
19609;SDS011;9952;47.122;-1.638;2024-03-02T01:13:15;4.90;;;0.80;;
19609;SDS011;9952;47.122;-1.638;2024-03-02T01:17:55;11.87;;;1.10;;
19609;SDS011;9952;47.122;-1.638;2024-03-02T01:22:36;6.57;;;1.23;;
19609;SDS011;9952;47.122;-1.638;2024-03-02T01:27:17;11.90;;;1.13;;
19609;SDS011;9952;47.122;-1.638;2024-03-02T01:31:58;7.30;;;1.53;;
19609;SDS011;9952;47.122;-1.638;2024-03-02T01:36:39;9.77;;;0.97;;
19609;SDS011;9952;47.122;-1.638;2024-03-02T01:41:20;5.87;;;0.90;;
19609;SDS011;9952;47.122;-1.638;2024-03-02T01:46:00;7.10;;;1.30;;
19609;SDS011;9952;47.122;-1.638;2024-03-02T01:50:41;14.90;;;1.50;;
19609;SDS011;9952;47.122;-1.638;2024-03-02T01:55:23;9.50;;;1.33;;
19609;SDS011;9952;47.122;-1.638;2024-03-02T02:00:04;11.73;;;1.30;;
19609;SDS011;9952;47.122;-1.638;2024-03-02T02:04:45;14.73;;;1.83;;
19609;SDS011;9952;47.122;-1.638;2024-03-02T02:09:26;9.00;;;1.20;;
19609;SDS011;9952;47.122;-1.638;2024-03-02T02:14:06;6.60;;;0.90;;
19609;SDS011;9952;47.122;-1.638;2024-03-02T02:18:47;12.57;;;1.53;;
19609;SDS011;9952;47.122;-1.638;2024-03-02T02:23:28;7.83;;;1.17;;
19609;SDS011;9952;47.122;-1.638;2024-03-02T02:28:08;6.37;;;1.10;;
19609;SDS011;9952;47.122;-1.638;2024-03-02T02:32:50;6.23;;;0.90;;
19609;SDS011;9952;47.122;-1.638;2024-03-02T02:37:30;3.87;;;0.53;;
19609;SDS011;9952;47.122;-1.638;2024-03-02T02:42:11;8.03;;;1.13;;
19609;SDS011;9952;47.122;-1.638;2024-03-02T02:46:52;9.90;;;1.03;;
19609;SDS011;9952;47.122;-1.638;2024-03-02T02:51:32;8.03;;;0.73;;
19609;SDS011;9952;47.122;-1.638;2024-03-02T02:56:13;8.13;;;0.73;;
19609;SDS011;9952;47.122;-1.638;2024-03-02T03:00:54;5.63;;;0.90;;
19609;SDS011;9952;47.122;-1.638;2024-03-02T03:05:36;6.97;;;0.90;;
19609;SDS011;9952;47.122;-1.638;2024-03-02T03:10:17;9.60;;;0.80;;
19609;SDS011;9952;47.122;-1.638;2024-03-02T03:14:58;8.27;;;1.10;;
19609;SDS011;9952;47.122;-1.638;2024-03-02T03:19:40;6.37;;;0.70;;
19609;SDS011;9952;47.122;-1.638;2024-03-02T03:24:20;8.73;;;1.00;;
19609;SDS011;9952;47.122;-1.638;2024-03-02T03:29:01;5.90;;;0.73;;
19609;SDS011;9952;47.122;-1.638;2024-03-02T03:33:42;10.93;;;0.83;;
19609;SDS011;9952;47.122;-1.638;2024-03-02T03:38:23;9.70;;;0.80;;
19609;SDS011;9952;47.122;-1.638;2024-03-02T03:43:03;7.63;;;1.10;;
19609;SDS011;9952;47.122;-1.638;2024-03-02T03:47:44;8.43;;;0.73;;
19609;SDS011;9952;47.122;-1.638;2024-03-02T03:52:24;9.17;;;0.87;;
19609;SDS011;9952;47.122;-1.638;2024-03-02T03:57:05;13.50;;;1.40;;
19609;SDS011;9952;47.122;-1.638;2024-03-02T04:01:46;8.53;;;1.20;;
19609;SDS011;9952;47.122;-1.638;2024-03-02T04:06:26;4.57;;;0.67;;
19609;SDS011;9952;47.122;-1.638;2024-03-02T04:11:07;3.73;;;0.50;;
19609;SDS011;9952;47.122;-1.638;2024-03-02T04:15:48;7.07;;;0.70;;
19609;SDS011;9952;47.122;-1.638;2024-03-02T04:20:29;7.83;;;0.67;;
19609;SDS011;9952;47.122;-1.638;2024-03-02T04:25:10;10.93;;;1.00;;
19609;SDS011;9952;47.122;-1.638;2024-03-02T04:29:50;6.33;;;0.80;;
19609;SDS011;9952;47.122;-1.638;2024-03-02T04:34:31;7.00;;;0.70;;
19609;SDS011;9952;47.122;-1.638;2024-03-02T04:39:12;10.40;;;1.70;;
19609;SDS011;9952;47.122;-1.638;2024-03-02T04:43:52;4.23;;;0.40;;
19609;SDS011;9952;47.122;-1.638;2024-03-02T04:48:33;2.93;;;0.50;;
19609;SDS011;9952;47.122;-1.638;2024-03-02T04:53:14;7.90;;;0.53;;
19609;SDS011;9952;47.122;-1.638;2024-03-02T04:57:55;3.70;;;0.80;;
19609;SDS011;9952;47.122;-1.638;2024-03-02T05:02:36;6.00;;;0.47;;
19609;SDS011;9952;47.122;-1.638;2024-03-02T05:07:16;8.20;;;0.87;;
19609;SDS011;9952;47.122;-1.638;2024-03-02T05:11:57;6.27;;;0.80;;
19609;SDS011;9952;47.122;-1.638;2024-03-02T05:17:03;6.73;;;1.07;;
19609;SDS011;9952;47.122;-1.638;2024-03-02T05:21:44;8.80;;;0.63;;
19609;SDS011;9952;47.122;-1.638;2024-03-02T05:26:24;10.57;;;1.37;;
19609;SDS011;9952;47.122;-1.638;2024-03-02T05:31:05;6.70;;;0.90;;
19609;SDS011;9952;47.122;-1.638;2024-03-02T05:35:46;8.30;;;1.03;;
19609;SDS011;9952;47.122;-1.638;2024-03-02T05:40:27;9.93;;;1.10;;
19609;SDS011;9952;47.122;-1.638;2024-03-02T05:45:07;6.73;;;0.97;;
19609;SDS011;9952;47.122;-1.638;2024-03-02T05:49:48;13.37;;;1.30;;
19609;SDS011;9952;47.122;-1.638;2024-03-02T05:54:29;4.33;;;0.83;;
19609;SDS011;9952;47.122;-1.638;2024-03-02T05:59:09;10.03;;;1.53;;
19609;SDS011;9952;47.122;-1.638;2024-03-02T06:03:53;6.87;;;1.23;;
19609;SDS011;9952;47.122;-1.638;2024-03-02T06:08:35;5.87;;;0.90;;
19609;SDS011;9952;47.122;-1.638;2024-03-02T06:13:15;4.67;;;1.20;;
19609;SDS011;9952;47.122;-1.638;2024-03-02T06:17:56;11.23;;;1.37;;
19609;SDS011;9952;47.122;-1.638;2024-03-02T06:22:37;14.37;;;1.50;;
19609;SDS011;9952;47.122;-1.638;2024-03-02T06:27:17;5.07;;;0.80;;
19609;SDS011;9952;47.122;-1.638;2024-03-02T06:31:58;11.23;;;1.47;;
19609;SDS011;9952;47.122;-1.638;2024-03-02T06:36:38;6.60;;;1.23;;
19609;SDS011;9952;47.122;-1.638;2024-03-02T06:41:21;11.47;;;1.60;;
19609;SDS011;9952;47.122;-1.638;2024-03-02T06:46:01;17.50;;;1.90;;
19609;SDS011;9952;47.122;-1.638;2024-03-02T06:50:42;14.60;;;1.50;;
19609;SDS011;9952;47.122;-1.638;2024-03-02T06:55:23;19.17;;;1.80;;
19609;SDS011;9952;47.122;-1.638;2024-03-02T07:00:06;8.63;;;1.23;;
19609;SDS011;9952;47.122;-1.638;2024-03-02T07:04:48;10.07;;;1.20;;
19609;SDS011;9952;47.122;-1.638;2024-03-02T07:09:31;6.33;;;1.30;;
19609;SDS011;9952;47.122;-1.638;2024-03-02T07:14:12;8.03;;;1.03;;
19609;SDS011;9952;47.122;-1.638;2024-03-02T07:18:52;6.27;;;1.30;;
19609;SDS011;9952;47.122;-1.638;2024-03-02T07:23:35;16.07;;;1.57;;
19609;SDS011;9952;47.122;-1.638;2024-03-02T07:28:16;7.20;;;1.20;;
19609;SDS011;9952;47.122;-1.638;2024-03-02T07:32:56;9.67;;;1.17;;
19609;SDS011;9952;47.122;-1.638;2024-03-02T07:37:37;14.03;;;1.83;;
19609;SDS011;9952;47.122;-1.638;2024-03-02T07:42:17;7.93;;;1.40;;
19609;SDS011;9952;47.122;-1.638;2024-03-02T07:46:58;11.73;;;1.30;;
19609;SDS011;9952;47.122;-1.638;2024-03-02T07:51:39;8.10;;;1.17;;
19609;SDS011;9952;47.122;-1.638;2024-03-02T07:56:20;13.50;;;1.27;;
19609;SDS011;9952;47.122;-1.638;2024-03-02T08:01:02;9.43;;;1.30;;
19609;SDS011;9952;47.122;-1.638;2024-03-02T08:05:44;14.17;;;1.90;;
19609;SDS011;9952;47.122;-1.638;2024-03-02T08:10:24;7.30;;;1.33;;
19609;SDS011;9952;47.122;-1.638;2024-03-02T08:15:05;8.47;;;1.20;;
19609;SDS011;9952;47.122;-1.638;2024-03-02T08:19:46;10.97;;;1.53;;
19609;SDS011;9952;47.122;-1.638;2024-03-02T08:24:28;15.20;;;2.00;;
19609;SDS011;9952;47.122;-1.638;2024-03-02T08:29:09;18.97;;;3.43;;
19609;SDS011;9952;47.122;-1.638;2024-03-02T08:33:49;9.30;;;1.13;;
19609;SDS011;9952;47.122;-1.638;2024-03-02T08:38:30;9.13;;;0.80;;
19609;SDS011;9952;47.122;-1.638;2024-03-02T08:43:11;5.60;;;0.97;;
19609;SDS011;9952;47.122;-1.638;2024-03-02T08:47:51;4.57;;;0.73;;
19609;SDS011;9952;47.122;-1.638;2024-03-02T08:52:32;8.67;;;1.37;;
19609;SDS011;9952;47.122;-1.638;2024-03-02T08:57:13;13.13;;;2.40;;
19609;SDS011;9952;47.122;-1.638;2024-03-02T09:01:54;9.03;;;1.30;;
19609;SDS011;9952;47.122;-1.638;2024-03-02T09:06:34;4.27;;;1.00;;
19609;SDS011;9952;47.122;-1.638;2024-03-02T09:11:17;8.40;;;1.57;;
19609;SDS011;9952;47.122;-1.638;2024-03-02T09:15:57;7.87;;;1.10;;
19609;SDS011;9952;47.122;-1.638;2024-03-02T09:20:38;5.90;;;1.37;;
19609;SDS011;9952;47.122;-1.638;2024-03-02T09:25:19;7.07;;;1.40;;
19609;SDS011;9952;47.122;-1.638;2024-03-02T09:29:59;5.87;;;1.30;;
19609;SDS011;9952;47.122;-1.638;2024-03-02T09:34:40;6.50;;;1.47;;
19609;SDS011;9952;47.122;-1.638;2024-03-02T09:39:21;10.77;;;2.10;;
19609;SDS011;9952;47.122;-1.638;2024-03-02T09:44:02;12.37;;;1.10;;
19609;SDS011;9952;47.122;-1.638;2024-03-02T09:48:46;10.63;;;1.30;;
19609;SDS011;9952;47.122;-1.638;2024-03-02T09:53:28;5.20;;;1.27;;
19609;SDS011;9952;47.122;-1.638;2024-03-02T09:58:12;8.97;;;1.43;;
19609;SDS011;9952;47.122;-1.638;2024-03-02T10:02:52;3.67;;;0.90;;
19609;SDS011;9952;47.122;-1.638;2024-03-02T10:07:34;6.23;;;1.20;;
19609;SDS011;9952;47.122;-1.638;2024-03-02T10:12:15;7.83;;;0.80;;
19609;SDS011;9952;47.122;-1.638;2024-03-02T10:17:01;8.95;;;1.20;;
19609;SDS011;9952;47.122;-1.638;2024-03-02T10:21:44;3.93;;;0.87;;
19609;SDS011;9952;47.122;-1.638;2024-03-02T10:26:25;9.90;;;1.10;;
19609;SDS011;9952;47.122;-1.638;2024-03-02T10:31:06;9.37;;;1.33;;
19609;SDS011;9952;47.122;-1.638;2024-03-02T10:35:47;7.60;;;1.17;;
19609;SDS011;9952;47.122;-1.638;2024-03-02T10:40:30;10.30;;;0.80;;
19609;SDS011;9952;47.122;-1.638;2024-03-02T10:45:12;6.03;;;0.80;;
19609;SDS011;9952;47.122;-1.638;2024-03-02T10:49:54;8.13;;;1.03;;
19609;SDS011;9952;47.122;-1.638;2024-03-02T10:54:36;9.10;;;1.10;;
19609;SDS011;9952;47.122;-1.638;2024-03-02T11:04:10;7.87;;;1.07;;
19609;SDS011;9952;47.122;-1.638;2024-03-02T11:08:55;9.07;;;1.00;;
19609;SDS011;9952;47.122;-1.638;2024-03-02T11:13:39;10.80;;;1.10;;
19609;SDS011;9952;47.122;-1.638;2024-03-02T11:18:27;6.13;;;1.23;;
19609;SDS011;9952;47.122;-1.638;2024-03-02T11:23:09;4.20;;;0.93;;
19609;SDS011;9952;47.122;-1.638;2024-03-02T11:32:33;5.60;;;0.83;;
19609;SDS011;9952;47.122;-1.638;2024-03-02T11:37:15;7.00;;;1.00;;
19609;SDS011;9952;47.122;-1.638;2024-03-02T11:42:02;4.27;;;0.77;;
19609;SDS011;9952;47.122;-1.638;2024-03-02T11:46:45;3.07;;;0.70;;
19609;SDS011;9952;47.122;-1.638;2024-03-02T11:51:32;4.50;;;0.77;;
19609;SDS011;9952;47.122;-1.638;2024-03-02T11:56:14;6.37;;;1.00;;
19609;SDS011;9952;47.122;-1.638;2024-03-02T12:00:57;7.13;;;0.80;;
19609;SDS011;9952;47.122;-1.638;2024-03-02T12:05:37;10.57;;;1.33;;
19609;SDS011;9952;47.122;-1.638;2024-03-02T12:10:19;7.43;;;1.20;;
19609;SDS011;9952;47.122;-1.638;2024-03-02T12:14:59;4.37;;;1.07;;
19609;SDS011;9952;47.122;-1.638;2024-03-02T12:19:40;3.27;;;0.83;;
19609;SDS011;9952;47.122;-1.638;2024-03-02T12:24:21;6.23;;;1.20;;
19609;SDS011;9952;47.122;-1.638;2024-03-02T12:29:02;8.53;;;0.93;;
19609;SDS011;9952;47.122;-1.638;2024-03-02T12:33:43;7.90;;;1.17;;
19609;SDS011;9952;47.122;-1.638;2024-03-02T12:38:23;5.93;;;0.90;;
19609;SDS011;9952;47.122;-1.638;2024-03-02T12:43:06;5.00;;;1.33;;
19609;SDS011;9952;47.122;-1.638;2024-03-02T12:47:47;7.80;;;1.00;;
19609;SDS011;9952;47.122;-1.638;2024-03-02T12:52:27;6.43;;;1.07;;
19609;SDS011;9952;47.122;-1.638;2024-03-02T12:57:08;6.40;;;1.50;;
19609;SDS011;9952;47.122;-1.638;2024-03-02T13:01:52;8.50;;;1.80;;
19609;SDS011;9952;47.122;-1.638;2024-03-02T13:06:34;4.57;;;1.00;;
19609;SDS011;9952;47.122;-1.638;2024-03-02T13:11:15;3.70;;;1.17;;
19609;SDS011;9952;47.122;-1.638;2024-03-02T13:15:56;9.90;;;0.97;;
19609;SDS011;9952;47.122;-1.638;2024-03-02T13:20:37;5.40;;;0.83;;
19609;SDS011;9952;47.122;-1.638;2024-03-02T13:25:19;10.67;;;1.97;;
19609;SDS011;9952;47.122;-1.638;2024-03-02T13:29:59;5.90;;;1.10;;
19609;SDS011;9952;47.122;-1.638;2024-03-02T13:34:42;8.67;;;1.00;;
19609;SDS011;9952;47.122;-1.638;2024-03-02T13:39:23;9.33;;;1.10;;
19609;SDS011;9952;47.122;-1.638;2024-03-02T13:44:03;10.00;;;1.73;;
19609;SDS011;9952;47.122;-1.638;2024-03-02T13:48:44;8.60;;;2.70;;
19609;SDS011;9952;47.122;-1.638;2024-03-02T13:53:25;9.13;;;2.30;;
19609;SDS011;9952;47.122;-1.638;2024-03-02T13:58:06;6.27;;;1.80;;
19609;SDS011;9952;47.122;-1.638;2024-03-02T14:02:46;8.33;;;1.80;;
19609;SDS011;9952;47.122;-1.638;2024-03-02T14:07:29;6.77;;;1.70;;
19609;SDS011;9952;47.122;-1.638;2024-03-02T14:12:10;6.97;;;2.30;;
19609;SDS011;9952;47.122;-1.638;2024-03-02T14:16:53;9.63;;;1.70;;
19609;SDS011;9952;47.122;-1.638;2024-03-02T14:21:35;5.53;;;1.43;;
19609;SDS011;9952;47.122;-1.638;2024-03-02T14:26:16;8.97;;;1.50;;
19609;SDS011;9952;47.122;-1.638;2024-03-02T14:30:57;4.43;;;1.33;;
19609;SDS011;9952;47.122;-1.638;2024-03-02T14:35:40;5.63;;;1.13;;
19609;SDS011;9952;47.122;-1.638;2024-03-02T14:40:21;8.17;;;0.93;;
19609;SDS011;9952;47.122;-1.638;2024-03-02T14:45:02;7.23;;;1.23;;
19609;SDS011;9952;47.122;-1.638;2024-03-02T14:49:44;3.37;;;1.00;;
19609;SDS011;9952;47.122;-1.638;2024-03-02T14:54:25;5.10;;;1.00;;
19609;SDS011;9952;47.122;-1.638;2024-03-02T14:59:06;6.40;;;0.80;;
19609;SDS011;9952;47.122;-1.638;2024-03-02T15:03:46;3.40;;;0.87;;
19609;SDS011;9952;47.122;-1.638;2024-03-02T15:08:27;6.40;;;1.00;;
19609;SDS011;9952;47.122;-1.638;2024-03-02T15:13:08;6.53;;;1.30;;
19609;SDS011;9952;47.122;-1.638;2024-03-02T15:17:48;4.87;;;0.70;;
19609;SDS011;9952;47.122;-1.638;2024-03-02T15:22:29;3.60;;;1.07;;
19609;SDS011;9952;47.122;-1.638;2024-03-02T15:27:10;4.77;;;0.90;;
19609;SDS011;9952;47.122;-1.638;2024-03-02T15:31:51;9.43;;;0.70;;
19609;SDS011;9952;47.122;-1.638;2024-03-02T15:36:32;3.97;;;0.73;;
19609;SDS011;9952;47.122;-1.638;2024-03-02T15:41:12;5.17;;;1.17;;
19609;SDS011;9952;47.122;-1.638;2024-03-02T15:45:53;3.73;;;0.73;;
19609;SDS011;9952;47.122;-1.638;2024-03-02T15:50:34;7.67;;;1.10;;
19609;SDS011;9952;47.122;-1.638;2024-03-02T15:55:16;3.67;;;0.70;;
19609;SDS011;9952;47.122;-1.638;2024-03-02T15:59:57;4.63;;;0.67;;
19609;SDS011;9952;47.122;-1.638;2024-03-02T16:04:38;5.77;;;0.93;;
19609;SDS011;9952;47.122;-1.638;2024-03-02T16:09:18;5.23;;;0.80;;
19609;SDS011;9952;47.122;-1.638;2024-03-02T16:13:59;7.07;;;2.10;;
19609;SDS011;9952;47.122;-1.638;2024-03-02T16:18:40;4.03;;;1.80;;
19609;SDS011;9952;47.122;-1.638;2024-03-02T16:23:21;7.73;;;1.90;;
19609;SDS011;9952;47.122;-1.638;2024-03-02T16:28:02;4.53;;;0.83;;
19609;SDS011;9952;47.122;-1.638;2024-03-02T16:32:44;2.77;;;0.67;;
19609;SDS011;9952;47.122;-1.638;2024-03-02T16:37:24;6.33;;;0.97;;
19609;SDS011;9952;47.122;-1.638;2024-03-02T16:42:06;4.23;;;1.13;;
19609;SDS011;9952;47.122;-1.638;2024-03-02T16:46:47;5.20;;;1.33;;
19609;SDS011;9952;47.122;-1.638;2024-03-02T16:51:28;5.67;;;1.10;;
19609;SDS011;9952;47.122;-1.638;2024-03-02T16:56:09;5.73;;;1.13;;
19609;SDS011;9952;47.122;-1.638;2024-03-02T17:00:49;5.93;;;0.93;;
19609;SDS011;9952;47.122;-1.638;2024-03-02T17:05:30;5.73;;;1.00;;
19609;SDS011;9952;47.122;-1.638;2024-03-02T17:10:11;9.10;;;0.80;;
19609;SDS011;9952;47.122;-1.638;2024-03-02T17:14:51;5.00;;;2.33;;
19609;SDS011;9952;47.122;-1.638;2024-03-02T17:19:32;4.23;;;1.90;;
19609;SDS011;9952;47.122;-1.638;2024-03-02T17:24:13;6.80;;;2.60;;
19609;SDS011;9952;47.122;-1.638;2024-03-02T17:28:53;14.17;;;5.53;;
19609;SDS011;9952;47.122;-1.638;2024-03-02T17:33:34;3.27;;;2.53;;
19609;SDS011;9952;47.122;-1.638;2024-03-02T17:38:16;7.70;;;1.17;;
19609;SDS011;9952;47.122;-1.638;2024-03-02T17:42:57;3.20;;;0.60;;
19609;SDS011;9952;47.122;-1.638;2024-03-02T17:47:37;3.03;;;0.70;;
19609;SDS011;9952;47.122;-1.638;2024-03-02T17:52:18;7.23;;;1.60;;
19609;SDS011;9952;47.122;-1.638;2024-03-02T17:56:59;5.83;;;2.23;;
19609;SDS011;9952;47.122;-1.638;2024-03-02T18:01:39;4.70;;;2.10;;
19609;SDS011;9952;47.122;-1.638;2024-03-02T18:06:20;5.30;;;2.30;;
19609;SDS011;9952;47.122;-1.638;2024-03-02T18:11:00;6.53;;;2.03;;
19609;SDS011;9952;47.122;-1.638;2024-03-02T18:15:41;3.10;;;1.30;;
19609;SDS011;9952;47.122;-1.638;2024-03-02T18:20:22;6.70;;;1.27;;
19609;SDS011;9952;47.122;-1.638;2024-03-02T18:25:02;4.23;;;2.13;;
19609;SDS011;9952;47.122;-1.638;2024-03-02T18:29:43;7.30;;;2.30;;
19609;SDS011;9952;47.122;-1.638;2024-03-02T18:34:24;38.27;;;14.53;;
19609;SDS011;9952;47.122;-1.638;2024-03-02T18:39:05;24.70;;;10.53;;
19609;SDS011;9952;47.122;-1.638;2024-03-02T18:43:46;19.80;;;6.67;;
19609;SDS011;9952;47.122;-1.638;2024-03-02T18:48:27;21.70;;;9.27;;
19609;SDS011;9952;47.122;-1.638;2024-03-02T18:53:07;40.23;;;18.00;;
19609;SDS011;9952;47.122;-1.638;2024-03-02T18:57:48;27.47;;;12.47;;
19609;SDS011;9952;47.122;-1.638;2024-03-02T19:02:29;25.37;;;11.87;;
19609;SDS011;9952;47.122;-1.638;2024-03-02T19:07:09;24.40;;;12.23;;
19609;SDS011;9952;47.122;-1.638;2024-03-02T19:11:50;21.30;;;10.50;;
19609;SDS011;9952;47.122;-1.638;2024-03-02T19:16:31;13.00;;;7.77;;
19609;SDS011;9952;47.122;-1.638;2024-03-02T19:21:11;17.33;;;8.50;;
19609;SDS011;9952;47.122;-1.638;2024-03-02T19:25:52;25.07;;;14.60;;
19609;SDS011;9952;47.122;-1.638;2024-03-02T19:30:34;29.23;;;15.90;;
19609;SDS011;9952;47.122;-1.638;2024-03-02T19:35:16;30.50;;;15.50;;
19609;SDS011;9952;47.122;-1.638;2024-03-02T19:39:56;35.50;;;19.43;;
19609;SDS011;9952;47.122;-1.638;2024-03-02T19:44:37;38.70;;;21.97;;
19609;SDS011;9952;47.122;-1.638;2024-03-02T19:49:18;45.37;;;30.00;;
19609;SDS011;9952;47.122;-1.638;2024-03-02T19:53:59;35.10;;;22.67;;
19609;SDS011;9952;47.122;-1.638;2024-03-02T19:58:40;34.63;;;19.80;;
19609;SDS011;9952;47.122;-1.638;2024-03-02T20:03:20;50.10;;;26.67;;
19609;SDS011;9952;47.122;-1.638;2024-03-02T20:08:02;50.70;;;28.50;;
19609;SDS011;9952;47.122;-1.638;2024-03-02T20:12:44;53.30;;;27.97;;
19609;SDS011;9952;47.122;-1.638;2024-03-02T20:17:25;60.20;;;30.40;;
19609;SDS011;9952;47.122;-1.638;2024-03-02T20:22:06;62.83;;;34.53;;
19609;SDS011;9952;47.122;-1.638;2024-03-02T20:26:47;67.03;;;35.67;;
19609;SDS011;9952;47.122;-1.638;2024-03-02T20:31:27;59.97;;;32.20;;
19609;SDS011;9952;47.122;-1.638;2024-03-02T20:36:11;63.30;;;34.03;;
19609;SDS011;9952;47.122;-1.638;2024-03-02T20:40:55;54.87;;;28.37;;
19609;SDS011;9952;47.122;-1.638;2024-03-02T20:45:36;51.23;;;29.57;;
19609;SDS011;9952;47.122;-1.638;2024-03-02T20:50:16;60.90;;;32.47;;
19609;SDS011;9952;47.122;-1.638;2024-03-02T20:54:57;62.63;;;34.27;;
19609;SDS011;9952;47.122;-1.638;2024-03-02T20:59:38;67.87;;;36.87;;
19609;SDS011;9952;47.122;-1.638;2024-03-02T21:04:19;58.97;;;33.37;;
19609;SDS011;9952;47.122;-1.638;2024-03-02T21:09:00;55.93;;;32.90;;
19609;SDS011;9952;47.122;-1.638;2024-03-02T21:13:40;47.93;;;28.43;;
19609;SDS011;9952;47.122;-1.638;2024-03-02T21:18:25;34.03;;;21.20;;
19609;SDS011;9952;47.122;-1.638;2024-03-02T21:23:06;48.53;;;28.37;;
19609;SDS011;9952;47.122;-1.638;2024-03-02T21:27:51;67.90;;;25.93;;
19609;SDS011;9952;47.122;-1.638;2024-03-02T21:32:31;39.90;;;14.70;;
19609;SDS011;9952;47.122;-1.638;2024-03-02T21:37:13;14.00;;;7.23;;
19609;SDS011;9952;47.122;-1.638;2024-03-02T21:41:54;12.13;;;6.87;;
19609;SDS011;9952;47.122;-1.638;2024-03-02T21:46:34;12.83;;;5.63;;
19609;SDS011;9952;47.122;-1.638;2024-03-02T21:51:15;39.57;;;13.60;;
19609;SDS011;9952;47.122;-1.638;2024-03-02T21:55:56;32.33;;;14.90;;
19609;SDS011;9952;47.122;-1.638;2024-03-02T22:00:36;8.80;;;5.20;;
19609;SDS011;9952;47.122;-1.638;2024-03-02T22:05:18;8.30;;;5.03;;
19609;SDS011;9952;47.122;-1.638;2024-03-02T22:09:59;7.60;;;3.90;;
19609;SDS011;9952;47.122;-1.638;2024-03-02T22:14:40;8.97;;;3.93;;
19609;SDS011;9952;47.122;-1.638;2024-03-02T22:19:20;6.60;;;3.50;;
19609;SDS011;9952;47.122;-1.638;2024-03-02T22:24:01;7.67;;;3.70;;
19609;SDS011;9952;47.122;-1.638;2024-03-02T22:28:41;7.13;;;3.20;;
19609;SDS011;9952;47.122;-1.638;2024-03-02T22:33:23;7.87;;;3.73;;
19609;SDS011;9952;47.122;-1.638;2024-03-02T22:38:04;5.87;;;3.27;;
19609;SDS011;9952;47.122;-1.638;2024-03-02T22:42:44;6.60;;;3.20;;
19609;SDS011;9952;47.122;-1.638;2024-03-02T22:47:25;8.40;;;4.30;;
19609;SDS011;9952;47.122;-1.638;2024-03-02T22:52:05;24.13;;;7.30;;
19609;SDS011;9952;47.122;-1.638;2024-03-02T22:56:46;15.47;;;5.33;;
19609;SDS011;9952;47.122;-1.638;2024-03-02T23:01:27;27.87;;;7.87;;
19609;SDS011;9952;47.122;-1.638;2024-03-02T23:06:08;25.27;;;6.00;;
19609;SDS011;9952;47.122;-1.638;2024-03-02T23:10:48;14.80;;;6.20;;
19609;SDS011;9952;47.122;-1.638;2024-03-02T23:15:29;6.87;;;3.57;;
19609;SDS011;9952;47.122;-1.638;2024-03-02T23:20:10;5.10;;;2.70;;
19609;SDS011;9952;47.122;-1.638;2024-03-02T23:24:51;6.07;;;2.73;;
19609;SDS011;9952;47.122;-1.638;2024-03-02T23:29:31;11.10;;;3.20;;
19609;SDS011;9952;47.122;-1.638;2024-03-02T23:34:15;5.93;;;2.90;;
19609;SDS011;9952;47.122;-1.638;2024-03-02T23:38:58;5.90;;;4.10;;
19609;SDS011;9952;47.122;-1.638;2024-03-02T23:43:44;5.23;;;3.50;;
19609;SDS011;9952;47.122;-1.638;2024-03-02T23:48:24;6.30;;;3.10;;
19609;SDS011;9952;47.122;-1.638;2024-03-02T23:53:05;4.23;;;2.90;;
19609;SDS011;9952;47.122;-1.638;2024-03-02T23:57:46;5.53;;;2.33;;
